Latest Coastal Weather Observations for Tasman Island

IDT60701

Issued at 12:15 am EST Wednesday 3 September 2014 (issued every 10 minutes, with the page automatically refreshed every 10 minutes)

About coastal observations | Map of coastal stations | Coastal observations for TAS | Marine services | Other Formats
Station Details ID: 094155 Name: TASMAN ISLAND Lat: -43.24 Lon: 148.00 Height: 240.0 m
Data from the previous 72 hours. | See also: Recent months at Tasman Island
Date/Time
EST
Temp

°C
Wind Pressure Rain
since 9am
mm
Weather Cloud Vis
km
Sea
Height
m
Swell
Dir
 
Speed
knots
Gust
knots
hPa Trend Height
m
Period
s
Dir
03/12:00am 7.1 WSW 7 19 1019.8 - 2.0 - - - - - - -
 
Date/Time
EST
Temp

°C
Wind Pressure Rain
since 9am
mm
Weather Cloud Vis
km
Sea
Height
m
Swell
Dir
 
Speed
knots
Gust
knots
hPa Trend Height
m
Period
s
Dir
02/11:30pm 7.0 NE 5 16 1019.9 - 2.0 - - - - - - -
02/11:00pm 7.4 WSW 5 20 1019.9 - 2.0 - - - - - - -
02/10:30pm 7.0 NNW 4 14 1020.0 - 2.0 - - - - - - -
02/10:01pm 7.5 SW 15 26 1019.8 - 2.0 - - - - - - -
02/10:00pm 7.5 SSW 14 26 1019.8 - 2.0 - - - - - - -
02/09:30pm 7.3 SW 10 24 1019.9 - 2.0 - - - - - - -
02/09:01pm 7.6 SW 15 31 1020.0 - 2.0 - - - - - - -
02/09:00pm 7.6 SW 15 24 1020.0 - 2.0 - - - - - - -
02/08:30pm 7.5 SSW 17 29 1019.9 - 2.0 - - - - - - -
02/08:23pm 7.2 SW 18 29 1019.8 - 2.0 - - - - - - -
02/08:00pm 6.5 SSW 14 22 1019.8 - 2.0 - - - - - - -
02/07:30pm 7.0 SW 15 30 1019.5 - 2.0 - - - - - - -
02/07:13pm 7.4 SSW 15 25 1019.3 - 2.0 - - - - - - -
02/07:00pm 7.4 SW 18 25 1019.3 - 2.0 - - - - - - -
02/06:30pm 7.0 SSW 17 28 1019.1 - 2.0 - - - - - - -
02/06:00pm 7.2 SSW 15 28 1018.7 - 2.0 - - - - - - -
02/05:30pm 7.3 SW 17 30 1018.4 - 2.0 - - - - - - -
02/05:00pm 7.2 SSW 18 29 1018.0 - 2.0 - - - - - - -
02/04:30pm 7.4 SW 23 35 1017.5 - 2.0 - - - - - - -
02/04:00pm 6.8 SW 18 34 1017.3 - 1.8 - - - - - - -
02/03:35pm 6.8 SW 15 30 1017.4 - 1.8 - - - - - - -
02/03:30pm 6.7 SW 14 29 1017.4 - 1.8 - - - - - - -
02/03:00pm 6.8 SSW 17 30 1017.3 - 1.8 Rain - - - - - -
02/02:31pm 7.0 SW 17 34 1017.0 - 1.0 - - - - - - -
02/02:30pm 7.0 SW 16 24 1017.0 - 1.0 - - - - - - -
02/02:14pm 6.8 SSW 15 29 1016.9 - 0.6 - - - - - - -
02/02:00pm 7.9 SW 14 23 1016.9 - 0.6 - - - - - - -
02/01:35pm 7.4 SSW 15 31 1016.9 - 0.6 - - - - - - -
02/01:30pm 7.8 SSW 13 26 1016.8 - 0.6 - - - - - - -
02/01:00pm 7.1 SSW 16 34 1016.7 - 0.4 - - - - - - -
02/12:30pm 7.8 SW 17 35 1016.5 - 0.4 - - - - - - -
02/12:00pm 5.9 SW 25 38 1016.8 - 0.2 Rain - - - - - -
02/11:50am 8.1 SW 18 36 1016.6 - 0.0 - - - - - - -
02/11:32am 8.3 SSW 15 26 1016.6 - 0.0 - - - - - - -
02/11:30am 8.5 SW 14 26 1016.7 - 0.0 - - - - - - -
02/11:00am 8.8 SW 15 34 1016.7 - 0.0 - - - - - - -
02/10:57am 8.3 SW 15 34 1016.7 - 0.0 - - - - - - -
02/10:30am 8.2 SW 13 27 1016.6 - 0.0 - - - - - - -
02/10:01am 9.1 SW 15 25 1016.6 - 0.0 - - - - - - -
02/10:00am 9.1 SW 14 25 1016.6 - 0.0 - - - - - - -
02/09:38am 8.5 SSW 17 28 1016.3 - 0.0 - - - - - - -
02/09:30am 8.7 SW 19 27 1016.2 - 0.0 - - - - - - -
02/09:00am 8.1 SW 16 27 1016.0 - 7.2 - - - - - - -
02/08:30am 8.1 SSW 18 30 1016.0 - 7.2 - - - - - - -
02/08:24am 8.2 SSW 16 27 1016.0 - 7.2 - - - - - - -
02/08:00am 8.2 SSW 14 22 1016.0 - 7.2 - - - - - - -
02/07:30am 7.4 SSW 15 27 1015.6 - 7.2 - - - - - - -
02/07:19am 7.6 SSW 15 26 1015.5 - 7.2 - - - - - - -
02/07:00am 7.3 SSW 13 21 1015.4 - 7.2 - - - - - - -
02/06:30am 7.4 SSW 13 20 1015.1 - 7.2 - - - - - - -
02/06:00am 7.4 SSW 13 21 1014.7 - 7.2 - - - - - - -
02/05:30am 7.5 SSW 16 24 1014.1 - 7.2 - - - - - - -
02/05:12am 7.4 SSW 15 26 1013.9 - 7.2 - - - - - - -
02/05:00am 7.6 SSW 14 23 1013.7 - 7.2 - - - - - - -
02/04:30am 7.2 SSW 13 21 1013.3 - 7.2 - - - - - - -
02/04:00am 7.4 SSW 16 24 1012.9 - 7.2 - - - - - - -
02/03:33am 7.8 SSW 15 25 1012.7 - 7.2 - - - - - - -
02/03:30am 7.8 SSW 13 20 1012.7 - 7.2 - - - - - - -
02/03:00am 7.3 SSW 13 20 1012.7 - 7.2 - - - - - - -
02/02:30am 7.5 SSW 12 20 1012.3 - 7.2 - - - - - - -
02/02:00am 7.9 SSW 15 23 1012.1 - 7.2 - - - - - - -
02/01:30am 7.6 S 12 18 1012.0 - 7.2 - - - - - - -
02/01:00am 7.8 S 10 19 1011.7 - 7.2 - - - - - - -
02/12:30am 7.5 S 13 21 1011.4 - 7.2 - - - - - - -
02/12:00am 7.6 S 13 19 1011.1 - 7.2 - - - - - - -
 
Date/Time
EST
Temp

°C
Wind Pressure Rain
since 9am
mm
Weather Cloud Vis
km
Sea
Height
m
Swell
Dir
 
Speed
knots
Gust
knots
hPa Trend Height
m
Period
s
Dir
01/11:30pm 7.4 SSW 12 18 1010.9 - 7.2 - - - - - - -
01/11:00pm 7.2 SSW 14 20 1010.5 - 7.2 - - - - - - -
01/10:30pm 6.6 S 14 25 1010.3 - 7.2 - - - - - - -
01/10:00pm 7.7 S 12 18 1010.0 - 6.8 - - - - - - -
01/09:30pm 7.9 S 11 20 1009.6 - 6.8 - - - - - - -
01/09:00pm 7.6 S 15 24 1008.9 - 6.8 - - - - - - -
01/08:41pm 7.8 S 15 25 1008.5 - 6.8 - - - - - - -
01/08:30pm 7.6 S 15 23 1008.4 - 6.8 - - - - - - -
01/08:16pm 7.2 S 15 30 1008.1 - 6.8 - - - - - - -
01/08:00pm 7.1 S 14 23 1007.8 - 6.8 - - - - - - -
01/07:30pm 7.5 SSW 17 27 1007.4 - 6.8 - - - - - - -
01/07:00pm 7.3 SSW 16 24 1006.8 - 6.6 - - - - - - -
01/06:30pm 7.5 SSW 15 25 1006.2 - 6.4 - - - - - - -
01/06:00pm 7.3 S 15 26 1005.8 - 6.2 Recent precip. - - - - - -
01/05:30pm 7.4 S 16 29 1004.7 - 6.2 - - - - - - -
01/05:00pm 7.6 S 16 26 1004.0 - 5.6 - - - - - - -
01/04:30pm 7.5 S 17 28 1003.3 - 5.2 - - - - - - -
01/04:17pm 7.8 S 17 27 1003.1 - 5.0 - - - - - - -
01/04:00pm 8.1 SSW 19 29 1002.8 - 4.8 - - - - - - -
01/03:30pm 8.5 SSW 21 34 1002.2 - 4.0 - - - - - - -
01/03:00pm 8.7 SSW 18 29 1002.1 - 3.8 Rain - - - - - -
01/02:30pm 8.8 SSW 16 29 1001.8 - 3.4 - - - - - - -
01/02:00pm 9.0 SSW 18 38 1000.7 - 2.4 - - - - - - -
01/01:50pm 9.6 SSW 17 27 1000.8 - 2.2 - - - - - - -
01/01:30pm 10.6 SSW 5 16 1000.9 - 1.6 - - - - - - -
01/01:00pm 13.7 NNW 16 29 1000.7 - 0.0 - - - - - - -
01/12:30pm 13.9 N 19 29 1001.0 - 0.0 - - - - - - -
01/12:00pm 13.9 N 16 32 1001.4 - 0.0 - - - - - - -
01/11:30am 13.1 N 16 27 1001.9 - 0.0 - - - - - - -
01/11:00am 13.3 N 16 29 1002.3 - 0.0 - - - - - - -
01/10:36am 13.2 N 15 26 1002.6 - 0.0 - - - - - - -
01/10:30am 13.2 N 13 25 1002.6 - 0.0 - - - - - - -
01/10:15am 12.9 NNW 15 26 1002.8 - 0.0 - - - - - - -
01/10:00am 12.9 N 10 19 1003.0 - 0.0 - - - - - - -
01/09:30am 12.9 N 19 30 1003.7 - 0.0 - - - - - - -
01/09:20am 13.0 N 17 28 1003.8 - 0.0 - - - - - - -
01/09:00am 12.8 N 19 27 1004.1 - 0.0 - - - - - - -
01/08:30am 12.5 N 20 28 1004.4 - 0.0 - - - - - - -
01/08:05am 12.4 N 16 27 1004.4 - 0.0 - - - - - - -
01/08:00am 12.5 N 16 23 1004.5 - 0.0 - - - - - - -
01/07:47am 12.6 N 18 28 1004.5 - 0.0 - - - - - - -
01/07:30am 12.6 N 18 25 1004.6 - 0.0 - - - - - - -
01/07:14am 12.6 N 16 26 1004.8 - 0.0 - - - - - - -
01/07:00am 12.7 N 19 27 1004.8 - 0.0 - - - - - - -
01/06:30am 12.5 N 20 26 1004.8 - 0.0 - - - - - - -
01/06:00am 12.6 N 22 29 1004.8 - 0.0 - - - - - - -
01/05:30am 12.6 N 20 27 1005.2 - 0.0 - - - - - - -
01/05:21am 12.8 N 20 31 1005.2 - 0.0 - - - - - - -
01/05:00am 12.8 N 23 29 1005.1 - 0.0 - - - - - - -
01/04:30am 12.9 N 22 30 1005.2 - 0.0 - - - - - - -
01/04:00am 12.8 N 17 28 1005.6 - 0.0 - - - - - - -
01/03:46am 13.1 N 20 31 1005.7 - 0.0 - - - - - - -
01/03:30am 12.9 N 24 31 1005.7 - 0.0 - - - - - - -
01/03:00am 13.3 N 26 42 1005.5 - 0.0 - - - - - - -
01/02:30am 13.7 N 22 35 1006.0 - 0.0 - - - - - - -
01/02:00am 14.4 NNW 25 37 1006.7 - 0.0 - - - - - - -
01/01:30am 14.2 NNW 23 39 1007.2 - 0.0 - - - - - - -
01/01:00am 14.1 N 22 37 1007.5 - 0.0 - - - - - - -
01/12:43am 13.9 N 22 35 1007.8 - 0.0 - - - - - - -
01/12:30am 12.8 N 21 28 1007.8 - 0.0 - - - - - - -
01/12:25am 12.8 N 22 32 1007.8 - 0.0 - - - - - - -
01/12:00am 13.2 N 27 32 1007.6 - 0.0 - - - - - - -
 
Date/Time
EST
Temp

°C
Wind Pressure Rain
since 9am
mm
Weather Cloud Vis
km
Sea
Height
m
Swell
Dir
 
Speed
knots
Gust
knots
hPa Trend Height
m
Period
s
Dir
31/11:38pm 13.6 N 25 36 1007.9 - 0.0 - - - - - - -
31/11:30pm 13.6 N 26 33 1008.1 - 0.0 - - - - - - -
31/11:00pm 13.6 N 19 25 1008.6 - 0.0 - - - - - - -
31/10:30pm 15.0 N 21 30 1008.7 - 0.0 - - - - - - -
31/10:00pm 14.9 N 22 30 1009.0 - 0.0 - - - - - - -
31/09:30pm 14.7 N 24 35 1009.3 - 0.0 - - - - - - -
31/09:21pm 14.6 N 24 35 1009.3 - 0.0 - - - - - - -
31/09:00pm 14.1 N 21 28 1009.4 - 0.0 - - - - - - -
31/08:30pm 14.0 N 20 28 1009.8 - 0.0 - - - - - - -
31/08:00pm 13.8 N 17 25 1010.1 - 0.0 - - - - - - -
31/07:30pm 13.9 N 17 24 1010.2 - 0.0 - - - - - - -
31/07:00pm 14.2 N 15 22 1010.2 - 0.0 - - - - - - -
31/06:30pm 14.2 N 15 21 1010.6 - 0.0 - - - - - - -
31/06:00pm 13.8 N 16 21 1010.6 - 0.0 - - - - - - -
31/05:30pm 14.2 N 15 20 1010.7 - 0.0 - - - - - - -
31/05:00pm 14.2 N 15 21 1010.8 - 0.0 - - - - - - -
31/04:30pm 14.2 N 11 17 1011.2 - 0.0 - - - - - - -
31/04:00pm 14.6 N 10 15 1011.4 - 0.0 - - - - - - -
31/03:30pm 14.1 N 9 12 1011.6 - 0.0 - - - - - - -
31/03:00pm 13.8 N 9 16 1012.1 - 0.0 - - - - - - -
31/02:30pm 13.9 N 9 15 1012.3 - 0.0 - - - - - - -
31/02:00pm 14.3 N 12 16 1012.5 - 0.0 - - - - - - -
31/01:30pm 14.6 N 10 13 1012.7 - 0.0 - - - - - - -
31/01:00pm 13.8 N 9 13 1013.0 - 0.0 - - - - - - -
31/12:30pm 14.9 N 7 12 1013.4 - 0.0 - - - - - - -
31/12:00pm 15.3 N 8 14 1014.1 - 0.0 - - - - - - -
31/11:30am 15.0 N 6 10 1014.4 - 0.0 - - - - - - -
31/11:00am 13.6 N 10 12 1014.6 - 0.0 - - - - - - -
31/10:30am 14.6 N 10 17 1015.1 - 0.0 - - - - - - -
31/10:00am 13.2 NNE 9 14 1015.5 - 0.0 - - - - - - -
31/09:30am 12.3 N 11 17 1015.7 - 0.0 - - - - - - -
31/09:00am 11.9 N 10 15 1015.9 - 0.2 - - - - - - -
31/08:30am 11.1 N 12 16 1016.2 - 0.2 - - - - - - -
31/08:00am 10.3 N 6 10 1016.5 - 0.2 - - - - - - -
31/07:30am 9.8 N 13 21 1016.2 - 0.2 - - - - - - -
31/07:00am 9.9 N 10 16 1016.1 - 0.2 - - - - - - -
31/06:30am 9.8 N 12 20 1016.1 - 0.2 - - - - - - -
31/06:00am 9.6 N 8 15 1016.4 - 0.2 - - - - - - -
31/05:30am 9.7 N 14 20 1016.4 - 0.2 - - - - - - -
31/05:00am 9.4 N 13 20 1016.4 - 0.2 - - - - - - -
31/04:30am 9.4 N 11 19 1016.8 - 0.2 - - - - - - -
31/04:00am 9.3 N 10 19 1016.9 - 0.2 - - - - - - -
31/03:30am 9.5 N 11 23 1016.9 - 0.2 - - - - - - -
31/03:00am 9.5 N 17 25 1017.5 - 0.2 - - - - - - -
31/02:30am 9.6 N 18 28 1017.9 - 0.2 - - - - - - -
31/02:28am 9.7 N 18 28 1018.0 - 0.2 - - - - - - -
31/02:00am 9.8 N 20 28 1018.2 - 0.2 - - - - - - -
31/01:33am 9.8 N 19 30 1018.6 - 0.2 - - - - - - -
31/01:30am 9.4 N 19 29 1018.5 - 0.2 - - - - - - -
31/01:27am 9.5 N 18 29 1018.7 - 0.2 - - - - - - -
31/01:00am 9.6 N 23 28 1019.1 - 0.2 - - - - - - -
31/12:30am 9.7 N 21 26 1019.4 - 0.2 - - - - - - -

Other Formats:

Comma delimited format used in spreadsheet applications
http://www.bom.gov.au/fwo/IDT60701/IDT60701.95986.axf

JavaScript Object Notation format (JSON) in row-major order
http://www.bom.gov.au/fwo/IDT60701/IDT60701.95986.json